Time;durP1;ratioP1;P1;durP2;ratioP2;P2;SDS_P1;SDS_P2;PMS_P1;PMS_P2;Temp;Humidity;BMP_temperature;BMP_pressure;BME280_temperature;BME280_humidity;BME280_pressure;Samples;Min_cycle;Max_cycle;Signal;HPM_P1;HPM_P2
2022/04/27 00:01:43;;;;;;;;;;;9.30;98.60;;;;;;5036576;28;39902;-58
2022/04/27 00:04:10;;;;;;;;;;;9.30;98.70;;;;;;5038433;28;36005;-58
2022/04/27 00:06:37;;;;;;;;;;;9.30;98.80;;;;;;5038490;28;37028;-58
2022/04/27 00:09:05;;;;;;;;;;;9.30;98.70;;;;;;5038998;28;36364;-58
2022/04/27 00:11:32;;;;;;;;;;;9.30;98.90;;;;;;5039131;28;37940;-58
2022/04/27 00:14:00;;;;;;;;;;;9.30;98.80;;;;;;5037165;28;37195;-58
2022/04/27 00:16:27;;;;;;;;;;;9.30;98.80;;;;;;5038610;28;37862;-58
2022/04/27 00:18:54;;;;;;;;;;;9.40;99.00;;;;;;5038771;28;38241;-59
2022/04/27 00:21:21;;;;;;;;;;;9.40;98.90;;;;;;5037776;28;38614;-58
2022/04/27 00:23:49;;;;;;;;;;;9.40;99.00;;;;;;5038404;28;35803;-58
2022/04/27 00:26:16;;;;;;;;;;;9.50;99.10;;;;;;5037315;28;36148;-58
2022/04/27 00:28:43;;;;;;;;;;;9.50;99.20;;;;;;5038734;28;38241;-58
2022/04/27 00:31:12;;;;;;;;;;;9.50;99.20;;;;;;5037195;28;38360;-58
2022/04/27 00:33:39;;;;;;;;;;;9.50;99.40;;;;;;5038390;28;39197;-58
2022/04/27 00:36:06;;;;;;;;;;;9.60;99.40;;;;;;5039007;28;36433;-58
2022/04/27 00:38:33;;;;;;;;;;;9.60;99.30;;;;;;5038576;28;37221;-58
2022/04/27 00:41:00;;;;;;;;;;;9.60;99.20;;;;;;5038756;28;39208;-58
2022/04/27 00:43:40;;;;;;;;;;;9.60;99.30;;;;;;5037141;28;35029;-58
2022/04/27 00:46:09;;;;;;;;;;;9.60;99.30;;;;;;5038807;28;35760;-58
2022/04/27 00:48:39;;;;;;;;;;;9.50;99.30;;;;;;5037843;28;41232;-58
2022/04/27 00:51:06;;;;;;;;;;;9.50;99.40;;;;;;5038473;28;39108;-58
2022/04/27 00:53:34;;;;;;;;;;;9.50;99.50;;;;;;5037785;28;36950;-58
2022/04/27 00:56:02;;;;;;;;;;;9.50;99.60;;;;;;5037451;28;36280;-58
2022/04/27 00:58:29;;;;;;;;;;;9.50;99.70;;;;;;5038027;28;38391;-58
2022/04/27 01:00:57;;;;;;;;;;;9.50;99.60;;;;;;5037525;28;36614;-58
2022/04/27 01:03:24;;;;;;;;;;;9.40;99.70;;;;;;5038170;28;36461;-58
2022/04/27 01:05:52;;;;;;;;;;;9.40;99.70;;;;;;5038836;28;36223;-58
2022/04/27 01:08:21;;;;;;;;;;;9.40;99.60;;;;;;5036068;28;38610;-58
2022/04/27 01:10:48;;;;;;;;;;;9.40;99.50;;;;;;5038105;28;38225;-58
2022/04/27 01:13:16;;;;;;;;;;;9.40;99.70;;;;;;5037461;28;37200;-62
2022/04/27 01:15:43;;;;;;;;;;;9.40;99.70;;;;;;5037433;28;37398;-57
2022/04/27 01:18:10;;;;;;;;;;;9.40;99.80;;;;;;5038688;28;37515;-60
2022/04/27 01:20:39;;;;;;;;;;;9.30;99.90;;;;;;5037152;28;41102;-60
2022/04/27 01:23:06;;;;;;;;;;;9.30;99.90;;;;;;5038388;28;36576;-60
2022/04/27 01:25:52;;;;;;;;;;;9.40;99.90;;;;;;5036693;28;36516;-61
2022/04/27 01:28:20;;;;;;;;;;;9.40;99.90;;;;;;5037359;28;38305;-61
2022/04/27 01:30:49;;;;;;;;;;;9.40;99.90;;;;;;5036517;28;38962;-61
2022/04/27 01:33:19;;;;;;;;;;;9.50;99.90;;;;;;5036535;28;37912;-61
2022/04/27 01:35:47;;;;;;;;;;;9.40;99.90;;;;;;5037179;28;36225;-61
2022/04/27 01:38:17;;;;;;;;;;;9.40;99.90;;;;;;5037200;28;37550;-61
2022/04/27 01:40:44;;;;;;;;;;;9.40;99.90;;;;;;5036106;28;36659;-61
2022/04/27 01:43:14;;;;;;;;;;;9.40;99.90;;;;;;5035769;28;37124;-60
2022/04/27 01:45:42;;;;;;;;;;;9.40;99.90;;;;;;5037524;28;35144;-63
2022/04/27 01:48:10;;;;;;;;;;;9.40;99.90;;;;;;5035979;28;37267;-63
2022/04/27 01:50:37;;;;;;;;;;;9.40;99.90;;;;;;5035168;28;37765;-63
2022/04/27 01:55:50;;;;;;;;;;;9.40;99.90;;;;;;5033793;28;39113;-58
2022/04/27 01:58:17;;;;;;;;;;;9.40;99.90;;;;;;5033610;28;37437;-58
2022/04/27 02:00:47;;;;;;;;;;;9.40;99.90;;;;;;5034886;28;38663;-59
2022/04/27 02:03:14;;;;;;;;;;;9.40;99.90;;;;;;5035699;28;37677;-58
2022/04/27 02:05:42;;;;;;;;;;;9.50;99.90;;;;;;5035571;28;37531;-59
2022/04/27 02:08:10;;;;;;;;;;;9.40;99.80;;;;;;5034083;28;37853;-59
2022/04/27 02:10:37;;;;;;;;;;;9.40;99.90;;;;;;5036660;28;37821;-58
2022/04/27 02:13:06;;;;;;;;;;;9.40;99.90;;;;;;5036197;28;37895;-59
2022/04/27 02:15:33;;;;;;;;;;;9.30;99.90;;;;;;5035799;28;36298;-58
2022/04/27 02:18:00;;;;;;;;;;;9.30;99.90;;;;;;5036439;28;38156;-58
2022/04/27 02:20:28;;;;;;;;;;;9.30;99.90;;;;;;5036273;28;39307;-58
2022/04/27 02:22:55;;;;;;;;;;;9.30;99.90;;;;;;5037788;28;35840;-59
2022/04/27 02:25:23;;;;;;;;;;;9.30;99.90;;;;;;5035174;28;36602;-59
2022/04/27 02:27:50;;;;;;;;;;;9.30;99.90;;;;;;5034331;28;37773;-58
2022/04/27 02:30:18;;;;;;;;;;;9.30;99.90;;;;;;5035441;28;38601;-58
2022/04/27 02:32:46;;;;;;;;;;;9.30;99.90;;;;;;5033871;28;38444;-59
2022/04/27 02:35:14;;;;;;;;;;;9.40;99.70;;;;;;5033836;28;38810;-59
2022/04/27 02:37:41;;;;;;;;;;;9.30;99.90;;;;;;5036178;28;38896;-63
2022/04/27 02:40:12;;;;;;;;;;;9.30;99.90;;;;;;5036131;28;37378;-63
2022/04/27 02:42:41;;;;;;;;;;;9.30;99.90;;;;;;5034205;28;38169;-63
2022/04/27 02:45:08;;;;;;;;;;;9.30;99.90;;;;;;5032025;28;35180;-58
2022/04/27 02:47:35;;;;;;;;;;;9.30;99.90;;;;;;5034222;28;38288;-59
2022/04/27 02:52:48;;;;;;;;;;;9.30;99.90;;;;;;5035453;28;38228;-63
2022/04/27 02:55:17;;;;;;;;;;;9.30;99.90;;;;;;5035046;28;36637;-63
2022/04/27 02:57:46;;;;;;;;;;;9.30;99.90;;;;;;5034933;28;37954;-63
2022/04/27 03:00:13;;;;;;;;;;;9.30;99.90;;;;;;5035133;28;39254;-62
2022/04/27 03:02:41;;;;;;;;;;;9.30;99.90;;;;;;5034050;28;37400;-63
2022/04/27 03:05:09;;;;;;;;;;;9.30;99.90;;;;;;5035599;28;35379;-63
2022/04/27 03:07:36;;;;;;;;;;;9.30;99.90;;;;;;5034299;28;40546;-63
2022/04/27 03:10:03;;;;;;;;;;;9.30;99.80;;;;;;5037067;28;38147;-63
2022/04/27 03:12:30;;;;;;;;;;;9.30;99.60;;;;;;5039357;28;35839;-63
2022/04/27 03:14:58;;;;;;;;;;;9.30;99.50;;;;;;5039027;28;36179;-63
2022/04/27 03:17:26;;;;;;;;;;;9.20;99.40;;;;;;5039300;28;37682;-63
2022/04/27 03:19:53;;;;;;;;;;;9.20;99.40;;;;;;5037203;28;37962;-63
2022/04/27 03:22:22;;;;;;;;;;;9.20;99.00;;;;;;5036224;28;37671;-59
2022/04/27 03:24:49;;;;;;;;;;;9.20;99.10;;;;;;5038015;28;35784;-59
2022/04/27 03:27:16;;;;;;;;;;;9.20;99.30;;;;;;5036546;28;37939;-59
2022/04/27 03:29:43;;;;;;;;;;;9.20;99.30;;;;;;5037396;28;38271;-59
2022/04/27 03:32:12;;;;;;;;;;;9.10;99.20;;;;;;5036882;28;37948;-63
2022/04/27 03:34:39;;;;;;;;;;;9.20;99.30;;;;;;5037900;28;38063;-63
2022/04/27 03:37:07;;;;;;;;;;;9.20;99.10;;;;;;5039429;28;39617;-63
2022/04/27 03:39:35;;;;;;;;;;;9.20;99.30;;;;;;5037412;28;36729;-63
2022/04/27 03:42:03;;;;;;;;;;;9.20;99.20;;;;;;5038134;28;38089;-63
2022/04/27 03:44:30;;;;;;;;;;;9.20;99.20;;;;;;5037862;28;36284;-63
2022/04/27 03:46:57;;;;;;;;;;;9.20;99.30;;;;;;5038500;28;36569;-63
2022/04/27 03:49:25;;;;;;;;;;;9.20;99.20;;;;;;5038152;28;37937;-63
2022/04/27 03:51:53;;;;;;;;;;;9.20;98.80;;;;;;5039060;28;38044;-63
2022/04/27 03:54:20;;;;;;;;;;;9.20;99.00;;;;;;5039354;28;37073;-63
2022/04/27 03:56:47;;;;;;;;;;;9.20;98.90;;;;;;5037800;28;39059;-63
2022/04/27 03:59:15;;;;;;;;;;;9.10;98.90;;;;;;5038891;28;37628;-63
2022/04/27 04:01:42;;;;;;;;;;;9.10;99.00;;;;;;5037426;28;37371;-63
2022/04/27 04:04:12;;;;;;;;;;;9.10;98.90;;;;;;5036650;28;34777;-63
2022/04/27 04:06:40;;;;;;;;;;;9.10;99.10;;;;;;5040169;28;39669;-63
2022/04/27 04:09:09;;;;;;;;;;;9.10;98.80;;;;;;5037105;28;36557;-64
2022/04/27 04:11:36;;;;;;;;;;;9.20;98.60;;;;;;5038049;28;37870;-63
2022/04/27 04:14:03;;;;;;;;;;;9.20;98.90;;;;;;5037583;28;39851;-63
2022/04/27 04:16:30;;;;;;;;;;;9.20;98.70;;;;;;5037020;28;37543;-63
2022/04/27 04:18:57;;;;;;;;;;;9.10;98.60;;;;;;5038080;28;38519;-63
2022/04/27 04:21:26;;;;;;;;;;;9.20;98.70;;;;;;5036511;28;37464;-63
2022/04/27 04:23:54;;;;;;;;;;;9.10;98.40;;;;;;5037867;28;36106;-63
2022/04/27 04:29:06;;;;;;;;;;;9.10;98.50;;;;;;5035205;28;38796;-59
2022/04/27 04:31:33;;;;;;;;;;;9.10;98.10;;;;;;5035849;28;38771;-59
2022/04/27 04:34:00;;;;;;;;;;;9.10;97.70;;;;;;5036139;28;37074;-59
2022/04/27 04:36:30;;;;;;;;;;;9.10;97.90;;;;;;5035510;28;38599;-59
2022/04/27 04:38:58;;;;;;;;;;;9.10;98.10;;;;;;5035553;28;37977;-63
2022/04/27 04:41:25;;;;;;;;;;;9.10;98.00;;;;;;5037267;28;37480;-63
2022/04/27 04:43:52;;;;;;;;;;;9.10;98.10;;;;;;5037214;28;35228;-63
2022/04/27 04:46:19;;;;;;;;;;;9.10;98.00;;;;;;5036481;28;39697;-59
2022/04/27 04:48:46;;;;;;;;;;;9.10;97.60;;;;;;5037499;28;36674;-59
2022/04/27 04:51:13;;;;;;;;;;;9.10;97.50;;;;;;5038438;28;37352;-59
2022/04/27 04:53:40;;;;;;;;;;;9.20;97.30;;;;;;5037080;28;35121;-59
2022/04/27 04:56:09;;;;;;;;;;;9.10;97.00;;;;;;5037205;28;38696;-59
2022/04/27 04:58:39;;;;;;;;;;;9.30;97.20;;;;;;5037207;28;37930;-63
2022/04/27 05:01:06;;;;;;;;;;;9.20;97.20;;;;;;5036062;28;36063;-63
2022/04/27 05:03:37;;;;;;;;;;;9.20;97.00;;;;;;5037626;28;34921;-63
2022/04/27 05:06:04;;;;;;;;;;;9.20;96.90;;;;;;5037026;28;37607;-63
2022/04/27 05:08:34;;;;;;;;;;;9.20;96.80;;;;;;5036186;28;38791;-63
2022/04/27 05:11:01;;;;;;;;;;;9.30;96.90;;;;;;5034707;28;36518;-63
2022/04/27 05:13:30;;;;;;;;;;;9.30;96.40;;;;;;5037380;28;37693;-63
2022/04/27 05:15:58;;;;;;;;;;;9.30;96.40;;;;;;5036413;28;39446;-59
2022/04/27 05:18:25;;;;;;;;;;;9.30;96.20;;;;;;5037024;28;36903;-59
2022/04/27 05:20:52;;;;;;;;;;;9.30;96.00;;;;;;5036993;28;38002;-63
2022/04/27 05:23:19;;;;;;;;;;;9.30;95.80;;;;;;5038113;28;35116;-63
2022/04/27 05:25:49;;;;;;;;;;;9.30;95.40;;;;;;5038146;28;37668;-63
2022/04/27 05:28:16;;;;;;;;;;;9.40;95.20;;;;;;5035989;28;38287;-59
2022/04/27 05:33:28;;;;;;;;;;;9.40;93.80;;;;;;5035850;28;38042;-59
2022/04/27 05:35:55;;;;;;;;;;;9.40;94.10;;;;;;5037095;28;37844;-63
2022/04/27 05:38:22;;;;;;;;;;;9.40;93.60;;;;;;5036911;28;37945;-63
2022/04/27 05:40:49;;;;;;;;;;;9.50;93.90;;;;;;5037024;28;36606;-59
2022/04/27 05:43:17;;;;;;;;;;;9.50;94.30;;;;;;5036753;28;36998;-59
2022/04/27 05:45:45;;;;;;;;;;;9.50;93.70;;;;;;5036376;28;38169;-59
2022/04/27 05:48:12;;;;;;;;;;;9.50;93.40;;;;;;5036656;28;37858;-59
2022/04/27 05:50:40;;;;;;;;;;;9.60;94.10;;;;;;5036103;28;37444;-63
2022/04/27 05:53:10;;;;;;;;;;;9.60;93.40;;;;;;5036664;28;37051;-63
2022/04/27 05:55:43;;;;;;;;;;;9.70;93.90;;;;;;5035967;28;37683;-63
2022/04/27 05:58:13;;;;;;;;;;;9.60;94.00;;;;;;5035744;28;39030;-63
2022/04/27 06:00:40;;;;;;;;;;;9.70;93.70;;;;;;5035316;28;37132;-63
2022/04/27 06:03:09;;;;;;;;;;;9.70;93.50;;;;;;5037677;28;34985;-63
2022/04/27 06:05:38;;;;;;;;;;;9.70;93.40;;;;;;5035624;28;37816;-63
2022/04/27 06:08:06;;;;;;;;;;;9.80;93.50;;;;;;5035684;28;37876;-63
2022/04/27 06:10:36;;;;;;;;;;;9.70;93.80;;;;;;5036285;28;37373;-63
2022/04/27 06:13:03;;;;;;;;;;;9.70;93.70;;;;;;5036999;28;37336;-63
2022/04/27 06:15:33;;;;;;;;;;;9.80;94.30;;;;;;5035248;28;38310;-63
2022/04/27 06:18:00;;;;;;;;;;;9.80;94.00;;;;;;5037441;28;38379;-63
2022/04/27 06:20:29;;;;;;;;;;;9.90;93.40;;;;;;5034722;28;37249;-63
2022/04/27 06:22:56;;;;;;;;;;;9.90;93.00;;;;;;5035880;28;36400;-63
2022/04/27 06:25:25;;;;;;;;;;;9.90;93.80;;;;;;5036505;28;36460;-63
2022/04/27 06:27:52;;;;;;;;;;;9.90;93.40;;;;;;5035637;28;37615;-62
2022/04/27 06:30:19;;;;;;;;;;;10.00;93.20;;;;;;5035966;28;38935;-61
2022/04/27 06:32:46;;;;;;;;;;;10.00;93.30;;;;;;5035875;28;37114;-61
2022/04/27 06:35:13;;;;;;;;;;;10.00;93.20;;;;;;5034638;28;37805;-61
2022/04/27 06:37:42;;;;;;;;;;;10.00;92.80;;;;;;5035620;28;38476;-60
2022/04/27 06:40:10;;;;;;;;;;;10.00;92.70;;;;;;5036257;28;38493;-58
2022/04/27 06:42:37;;;;;;;;;;;10.20;93.20;;;;;;5036303;28;35221;-57
2022/04/27 06:45:05;;;;;;;;;;;10.10;92.30;;;;;;5034206;28;39266;-56
2022/04/27 06:47:32;;;;;;;;;;;10.10;91.80;;;;;;5036213;28;40422;-56
2022/04/27 06:49:59;;;;;;;;;;;10.10;92.20;;;;;;5036139;28;36032;-57
2022/04/27 06:52:26;;;;;;;;;;;10.20;91.10;;;;;;5034730;28;37133;-57
2022/04/27 06:54:54;;;;;;;;;;;10.20;88.30;;;;;;5034288;28;38158;-57
2022/04/27 06:57:21;;;;;;;;;;;10.30;87.60;;;;;;5034067;28;36802;-57
2022/04/27 06:59:48;;;;;;;;;;;10.30;87.60;;;;;;5035181;28;37023;-56
2022/04/27 07:02:16;;;;;;;;;;;10.30;88.50;;;;;;5034094;28;36925;-56
2022/04/27 07:04:48;;;;;;;;;;;10.30;88.10;;;;;;5033300;28;37606;-56
2022/04/27 07:07:16;;;;;;;;;;;10.40;88.60;;;;;;5032275;28;38420;-57
2022/04/27 07:09:43;;;;;;;;;;;10.40;90.00;;;;;;5029790;28;37917;-56
2022/04/27 07:12:13;;;;;;;;;;;10.40;90.30;;;;;;5032123;28;36304;-57
2022/04/27 07:14:40;;;;;;;;;;;10.50;90.10;;;;;;5031711;28;39436;-56
2022/04/27 07:17:07;;;;;;;;;;;10.50;88.90;;;;;;5034795;28;38523;-59
2022/04/27 07:19:34;;;;;;;;;;;10.50;88.70;;;;;;5032337;28;36797;-59
2022/04/27 07:22:05;;;;;;;;;;;10.50;89.70;;;;;;5033050;28;36409;-59
2022/04/27 07:24:32;;;;;;;;;;;10.60;88.60;;;;;;5035661;28;37546;-57
2022/04/27 07:26:59;;;;;;;;;;;10.60;86.80;;;;;;5030898;28;37706;-56
2022/04/27 07:29:28;;;;;;;;;;;10.60;88.30;;;;;;5031581;28;36113;-56
2022/04/27 07:31:55;;;;;;;;;;;10.60;87.80;;;;;;5035462;28;35187;-57
2022/04/27 07:34:22;;;;;;;;;;;10.70;88.50;;;;;;5033688;28;38118;-58
2022/04/27 07:36:49;;;;;;;;;;;10.70;85.90;;;;;;5033358;28;38094;-59
2022/04/27 07:39:16;;;;;;;;;;;10.70;86.10;;;;;;5036888;28;37604;-60
2022/04/27 07:41:45;;;;;;;;;;;10.60;86.50;;;;;;5036214;28;36441;-59
2022/04/27 07:44:12;;;;;;;;;;;10.70;87.10;;;;;;5035193;28;37953;-59
2022/04/27 07:46:42;;;;;;;;;;;10.70;86.30;;;;;;5036904;28;37947;-59
2022/04/27 07:49:09;;;;;;;;;;;10.70;84.80;;;;;;5035150;28;37456;-60
2022/04/27 07:51:36;;;;;;;;;;;10.70;84.10;;;;;;5034432;28;36550;-59
2022/04/27 07:54:03;;;;;;;;;;;10.70;83.40;;;;;;5034433;28;39506;-59
2022/04/27 07:56:30;;;;;;;;;;;10.70;82.60;;;;;;5035748;28;39494;-59
2022/04/27 07:58:57;;;;;;;;;;;10.70;83.60;;;;;;5038346;28;37461;-59
2022/04/27 08:01:24;;;;;;;;;;;10.70;82.20;;;;;;5037173;28;34692;-59
2022/04/27 08:03:53;;;;;;;;;;;10.70;81.90;;;;;;5036993;28;40077;-59
2022/04/27 08:06:20;;;;;;;;;;;10.70;83.60;;;;;;5032146;28;37759;-59
2022/04/27 08:08:47;;;;;;;;;;;10.80;83.10;;;;;;5036131;28;36385;-59
2022/04/27 08:11:15;;;;;;;;;;;10.70;82.50;;;;;;5037128;28;38048;-59
2022/04/27 08:13:42;;;;;;;;;;;10.80;81.50;;;;;;5037092;28;37782;-59
2022/04/27 08:16:10;;;;;;;;;;;10.70;80.60;;;;;;5036734;28;39363;-59
2022/04/27 08:18:37;;;;;;;;;;;10.70;81.70;;;;;;5037663;28;38627;-59
2022/04/27 08:21:21;;;;;;;;;;;10.70;80.90;;;;;;5039006;28;36073;-59
2022/04/27 08:23:48;;;;;;;;;;;10.70;81.60;;;;;;5038752;28;38439;-59
2022/04/27 08:26:16;;;;;;;;;;;10.70;82.10;;;;;;5034433;28;36611;-59
2022/04/27 08:28:43;;;;;;;;;;;10.80;81.60;;;;;;5035114;28;37335;-59
2022/04/27 08:31:12;;;;;;;;;;;10.80;82.90;;;;;;5037915;28;36119;-59
2022/04/27 08:33:39;;;;;;;;;;;10.80;82.10;;;;;;5036680;28;38612;-59
2022/04/27 08:36:08;;;;;;;;;;;10.80;83.10;;;;;;5037217;28;41380;-59
2022/04/27 08:38:35;;;;;;;;;;;10.80;84.40;;;;;;5035963;28;36089;-60
2022/04/27 08:41:03;;;;;;;;;;;10.90;83.80;;;;;;5037859;28;37162;-60
2022/04/27 08:43:30;;;;;;;;;;;10.90;82.20;;;;;;5037003;28;37545;-60
2022/04/27 08:46:01;;;;;;;;;;;10.90;82.00;;;;;;5038630;28;37531;-58
2022/04/27 08:48:29;;;;;;;;;;;11.00;80.80;;;;;;5037219;28;36880;-59
2022/04/27 08:50:56;;;;;;;;;;;11.00;83.40;;;;;;5033049;28;36346;-59
2022/04/27 08:53:25;;;;;;;;;;;11.00;83.50;;;;;;5034673;28;36476;-57
2022/04/27 08:55:53;;;;;;;;;;;11.00;84.90;;;;;;5035959;28;37495;-59
2022/04/27 08:58:22;;;;;;;;;;;10.90;85.50;;;;;;5037193;28;35964;-59
2022/04/27 09:00:49;;;;;;;;;;;11.00;86.50;;;;;;5037094;28;37426;-59
2022/04/27 09:03:26;;;;;;;;;;;11.00;85.10;;;;;;5037266;28;37867;-60
2022/04/27 09:05:54;;;;;;;;;;;10.90;84.10;;;;;;5037864;27;38640;-59
2022/04/27 09:08:21;;;;;;;;;;;10.90;84.10;;;;;;5036496;28;37363;-59
2022/04/27 09:10:49;;;;;;;;;;;10.90;84.20;;;;;;5037349;28;36643;-60
2022/04/27 09:13:16;;;;;;;;;;;10.90;85.90;;;;;;5036697;28;36940;-59
2022/04/27 09:15:44;;;;;;;;;;;10.80;85.50;;;;;;5037286;28;38037;-59
2022/04/27 09:21:04;;;;;;;;;;;10.80;86.80;;;;;;5035814;28;38258;-59
2022/04/27 09:23:37;;;;;;;;;;;10.80;87.40;;;;;;5036923;28;38484;-59
2022/04/27 09:26:19;;;;;;;;;;;10.80;87.60;;;;;;5035906;28;37728;-59
2022/04/27 09:28:48;;;;;;;;;;;10.70;87.30;;;;;;5036396;28;38527;-59
2022/04/27 09:31:25;;;;;;;;;;;10.70;88.30;;;;;;5038161;28;36605;-59
2022/04/27 09:33:58;;;;;;;;;;;10.70;88.30;;;;;;5036547;28;37870;-59
2022/04/27 09:36:25;;;;;;;;;;;10.70;87.70;;;;;;5035317;28;37623;-56
2022/04/27 09:38:53;;;;;;;;;;;10.70;88.10;;;;;;5036293;28;37125;-56
2022/04/27 09:41:35;;;;;;;;;;;10.70;88.90;;;;;;5036320;28;36502;-56
2022/04/27 09:44:03;;;;;;;;;;;10.70;88.60;;;;;;5035265;28;39715;-56
2022/04/27 09:46:31;;;;;;;;;;;10.80;88.10;;;;;;5031367;28;37965;-60
2022/04/27 09:49:09;;;;;;;;;;;10.70;88.70;;;;;;5036666;28;36979;-59
2022/04/27 09:51:36;;;;;;;;;;;10.70;88.90;;;;;;5035234;28;36914;-59
2022/04/27 09:54:04;;;;;;;;;;;10.70;89.60;;;;;;5035680;28;36447;-59
2022/04/27 09:56:34;;;;;;;;;;;10.70;89.50;;;;;;5034758;28;38715;-59
2022/04/27 09:59:04;;;;;;;;;;;10.80;90.00;;;;;;5036314;28;37077;-59
2022/04/27 10:01:35;;;;;;;;;;;10.80;89.70;;;;;;5033759;28;36430;-59
2022/04/27 10:04:04;;;;;;;;;;;10.80;88.50;;;;;;5048507;28;32184;-59
2022/04/27 10:06:31;;;;;;;;;;;10.80;89.20;;;;;;5034072;28;37540;-60
2022/04/27 10:08:59;;;;;;;;;;;10.80;89.00;;;;;;5032765;28;37900;-60
2022/04/27 10:11:27;;;;;;;;;;;10.80;88.90;;;;;;5031861;28;35602;-59
2022/04/27 10:13:54;;;;;;;;;;;10.80;88.30;;;;;;5033418;28;36897;-60
2022/04/27 10:16:22;;;;;;;;;;;10.80;88.20;;;;;;5034473;28;39750;-59
2022/04/27 10:18:51;;;;;;;;;;;10.80;87.70;;;;;;5033257;28;37186;-56
2022/04/27 10:21:38;;;;;;;;;;;10.80;88.40;;;;;;5032722;28;36134;-56
2022/04/27 10:24:06;;;;;;;;;;;10.80;87.70;;;;;;5033292;28;37123;-56
2022/04/27 10:26:34;;;;;;;;;;;10.90;86.20;;;;;;5032029;28;38197;-60
2022/04/27 10:29:01;;;;;;;;;;;10.90;85.90;;;;;;5026748;28;37277;-59
2022/04/27 10:31:47;;;;;;;;;;;10.90;86.60;;;;;;5030126;28;35095;-59
2022/04/27 10:34:20;;;;;;;;;;;10.90;86.50;;;;;;5029667;28;39755;-60
2022/04/27 10:36:48;;;;;;;;;;;11.00;85.80;;;;;;5029227;28;37925;-60
2022/04/27 10:39:20;;;;;;;;;;;10.90;86.30;;;;;;5031736;28;36846;-59
2022/04/27 10:41:54;;;;;;;;;;;10.90;85.80;;;;;;5029979;28;37614;-59
2022/04/27 10:44:21;;;;;;;;;;;11.00;86.30;;;;;;5031179;28;37539;-59
2022/04/27 10:46:49;;;;;;;;;;;11.00;86.40;;;;;;5030445;28;38296;-59
2022/04/27 10:49:23;;;;;;;;;;;11.10;86.50;;;;;;5031445;28;37704;-56
2022/04/27 10:52:00;;;;;;;;;;;11.10;85.90;;;;;;5032159;28;36145;-59
2022/04/27 10:54:28;;;;;;;;;;;11.20;86.30;;;;;;5032781;28;37659;-58
2022/04/27 10:56:56;;;;;;;;;;;11.20;85.90;;;;;;5032957;28;38500;-59
2022/04/27 10:59:47;;;;;;;;;;;11.20;86.00;;;;;;5030881;28;37580;-58
2022/04/27 11:02:29;;;;;;;;;;;11.20;84.70;;;;;;5017330;28;36508;-59
2022/04/27 11:04:58;;;;;;;;;;;11.20;84.90;;;;;;5029661;28;38471;-58
2022/04/27 11:07:34;;;;;;;;;;;11.30;85.10;;;;;;5030821;28;37974;-59
2022/04/27 11:10:21;;;;;;;;;;;11.30;83.60;;;;;;5032475;28;37324;-59
2022/04/27 11:12:50;;;;;;;;;;;11.30;84.40;;;;;;5033239;28;36348;-59
2022/04/27 11:15:18;;;;;;;;;;;11.40;84.00;;;;;;5032414;28;38593;-59
2022/04/27 11:17:45;;;;;;;;;;;11.40;84.10;;;;;;5032464;28;38809;-59
2022/04/27 11:20:27;;;;;;;;;;;11.40;84.30;;;;;;5028669;28;39017;-59
2022/04/27 11:22:54;;;;;;;;;;;11.50;83.10;;;;;;5032408;28;37135;-59
2022/04/27 11:25:28;;;;;;;;;;;11.40;82.00;;;;;;5028891;28;37794;-56
2022/04/27 11:27:56;;;;;;;;;;;11.40;83.20;;;;;;5030360;28;37976;-56
2022/04/27 11:30:23;;;;;;;;;;;11.50;82.80;;;;;;5031984;28;36940;-57
2022/04/27 11:32:50;;;;;;;;;;;11.50;84.00;;;;;;5032843;28;35258;-59
2022/04/27 11:35:21;;;;;;;;;;;11.60;81.90;;;;;;5034318;28;37817;-59
2022/04/27 11:37:52;;;;;;;;;;;11.60;80.80;;;;;;5039715;28;38699;-59
2022/04/27 11:40:22;;;;;;;;;;;11.70;82.10;;;;;;5039594;28;35950;-59
2022/04/27 11:42:49;;;;;;;;;;;11.70;82.90;;;;;;5037512;28;36660;-58
2022/04/27 11:45:19;;;;;;;;;;;11.80;80.90;;;;;;5038236;28;37955;-59
2022/04/27 11:47:55;;;;;;;;;;;11.90;81.60;;;;;;5039175;28;37831;-59
2022/04/27 11:50:22;;;;;;;;;;;11.90;82.00;;;;;;5038941;28;36242;-59
2022/04/27 11:52:58;;;;;;;;;;;11.90;78.30;;;;;;5036915;28;36332;-59
2022/04/27 11:55:25;;;;;;;;;;;12.00;77.40;;;;;;5038715;28;39443;-56
2022/04/27 11:57:52;;;;;;;;;;;12.00;77.70;;;;;;5038792;28;39305;-56
2022/04/27 12:00:20;;;;;;;;;;;12.00;78.50;;;;;;5040891;28;37282;-56
2022/04/27 12:02:48;;;;;;;;;;;12.10;77.90;;;;;;5037526;28;36630;-56
2022/04/27 12:05:15;;;;;;;;;;;12.20;79.50;;;;;;5035989;28;37432;-56
2022/04/27 12:07:43;;;;;;;;;;;12.20;77.80;;;;;;5037332;28;38936;-57
2022/04/27 12:10:12;;;;;;;;;;;12.20;79.10;;;;;;5037830;28;36166;-56
2022/04/27 12:12:39;;;;;;;;;;;12.20;78.30;;;;;;5039119;28;36409;-56
2022/04/27 12:15:07;;;;;;;;;;;12.20;79.50;;;;;;5036603;28;36559;-57
2022/04/27 12:17:48;;;;;;;;;;;12.20;79.00;;;;;;5038983;28;38413;-56
2022/04/27 12:20:40;;;;;;;;;;;12.20;78.50;;;;;;5039592;28;37407;-56
2022/04/27 12:23:08;;;;;;;;;;;12.20;79.20;;;;;;5036210;28;36292;-56
2022/04/27 12:25:38;;;;;;;;;;;12.30;77.50;;;;;;5035726;28;39112;-56
2022/04/27 12:28:06;;;;;;;;;;;12.30;75.80;;;;;;5027677;28;38426;-56
2022/04/27 12:30:40;;;;;;;;;;;12.30;78.00;;;;;;5029965;28;38527;-56
2022/04/27 12:33:07;;;;;;;;;;;12.30;77.90;;;;;;5032608;28;38026;-56
2022/04/27 12:38:19;;;;;;;;;;;12.40;77.80;;;;;;5034423;28;38957;-59
2022/04/27 12:40:48;;;;;;;;;;;12.50;77.90;;;;;;5034740;28;37502;-56
2022/04/27 12:43:17;;;;;;;;;;;12.60;74.70;;;;;;5033591;28;37305;-56
2022/04/27 12:46:01;;;;;;;;;;;12.60;77.30;;;;;;5031815;28;38720;-56
2022/04/27 12:48:30;;;;;;;;;;;12.60;75.80;;;;;;5033373;28;38138;-57
2022/04/27 12:50:58;;;;;;;;;;;12.50;76.00;;;;;;5031718;28;37057;-56
2022/04/27 12:53:25;;;;;;;;;;;12.50;75.50;;;;;;5034908;28;36189;-56
2022/04/27 12:56:10;;;;;;;;;;;12.40;75.50;;;;;;5033202;28;39569;-57
2022/04/27 12:58:38;;;;;;;;;;;12.40;75.00;;;;;;5033047;28;39472;-56
2022/04/27 13:01:05;;;;;;;;;;;12.40;75.80;;;;;;5033416;28;37127;-56
2022/04/27 13:03:33;;;;;;;;;;;12.50;77.30;;;;;;5034528;28;35754;-56
2022/04/27 13:06:01;;;;;;;;;;;12.40;76.60;;;;;;5031504;28;38084;-56
2022/04/27 13:08:28;;;;;;;;;;;12.40;78.20;;;;;;5027595;28;37062;-57
2022/04/27 13:13:42;;;;;;;;;;;12.30;79.50;;;;;;5035467;28;37442;-57
2022/04/27 13:16:10;;;;;;;;;;;12.20;80.10;;;;;;5036522;28;37866;-56
2022/04/27 13:18:37;;;;;;;;;;;12.10;81.00;;;;;;5038085;28;39291;-56
2022/04/27 13:21:05;;;;;;;;;;;12.10;80.90;;;;;;5034006;28;37870;-57
2022/04/27 13:23:33;;;;;;;;;;;12.10;79.90;;;;;;5038959;28;37298;-56
2022/04/27 13:26:01;;;;;;;;;;;12.00;81.20;;;;;;5038584;28;38671;-56
2022/04/27 13:28:28;;;;;;;;;;;12.00;81.90;;;;;;5039212;28;37585;-56
2022/04/27 13:30:57;;;;;;;;;;;12.00;81.20;;;;;;5038113;28;35904;-59
2022/04/27 13:33:24;;;;;;;;;;;12.10;80.90;;;;;;5036507;28;35869;-56
2022/04/27 13:35:51;;;;;;;;;;;11.90;80.40;;;;;;5034552;28;37653;-57
2022/04/27 13:38:19;;;;;;;;;;;11.90;81.10;;;;;;5039448;28;37752;-56
2022/04/27 13:40:46;;;;;;;;;;;12.00;80.50;;;;;;5037198;28;36678;-56
2022/04/27 13:43:13;;;;;;;;;;;12.00;80.80;;;;;;5036141;28;37391;-56
2022/04/27 13:45:40;;;;;;;;;;;12.00;79.80;;;;;;5036820;28;35923;-56
2022/04/27 13:48:09;;;;;;;;;;;12.00;80.20;;;;;;5038240;28;39013;-56
2022/04/27 13:50:36;;;;;;;;;;;12.10;81.00;;;;;;5035822;28;38675;-56
2022/04/27 13:53:03;;;;;;;;;;;12.10;79.60;;;;;;5037270;28;35176;-57
2022/04/27 13:55:32;;;;;;;;;;;12.10;79.50;;;;;;5036501;28;38813;-56
2022/04/27 13:57:59;;;;;;;;;;;12.20;79.00;;;;;;5038743;28;38180;-56
2022/04/27 14:00:26;;;;;;;;;;;12.20;78.00;;;;;;5036478;28;37173;-56
2022/04/27 14:02:53;;;;;;;;;;;12.30;79.60;;;;;;5037673;28;37409;-56
2022/04/27 14:05:22;;;;;;;;;;;12.40;76.80;;;;;;5035780;28;38175;-57
2022/04/27 14:07:50;;;;;;;;;;;12.50;75.70;;;;;;5037251;28;38570;-56
2022/04/27 14:10:17;;;;;;;;;;;12.50;76.70;;;;;;5038159;28;37080;-56
2022/04/27 14:15:30;;;;;;;;;;;12.70;75.90;;;;;;5035905;28;40032;-56
2022/04/27 14:18:14;;;;;;;;;;;12.70;76.00;;;;;;5037850;28;36195;-56
2022/04/27 14:20:43;;;;;;;;;;;12.70;72.20;;;;;;5038601;28;36008;-56
2022/04/27 14:23:11;;;;;;;;;;;12.70;71.00;;;;;;5037777;28;36615;-56
2022/04/27 14:25:38;;;;;;;;;;;12.80;71.90;;;;;;5038329;28;37702;-56
2022/04/27 14:28:06;;;;;;;;;;;12.80;72.80;;;;;;5038866;28;37586;-56
2022/04/27 14:30:33;;;;;;;;;;;12.70;73.30;;;;;;5038146;28;37291;-56
2022/04/27 14:33:01;;;;;;;;;;;12.70;74.70;;;;;;5037716;28;36089;-56
2022/04/27 14:35:28;;;;;;;;;;;12.60;75.90;;;;;;5034811;28;37254;-56
2022/04/27 14:37:57;;;;;;;;;;;12.50;75.50;;;;;;5033043;28;38275;-57
2022/04/27 14:40:25;;;;;;;;;;;12.40;77.20;;;;;;5038756;28;37555;-56
2022/04/27 14:42:52;;;;;;;;;;;12.30;76.80;;;;;;5035892;28;36939;-56
2022/04/27 14:45:19;;;;;;;;;;;12.30;77.50;;;;;;5034675;28;36552;-56
2022/04/27 14:47:46;;;;;;;;;;;12.30;77.30;;;;;;5036062;28;38194;-56
2022/04/27 14:50:13;;;;;;;;;;;12.30;77.60;;;;;;5035725;28;36922;-56
2022/04/27 14:52:40;;;;;;;;;;;12.30;77.30;;;;;;5034516;28;36181;-56
2022/04/27 14:55:09;;;;;;;;;;;12.20;77.20;;;;;;5034759;28;36531;-57